Time;durP1;ratioP1;P1;durP2;ratioP2;P2;SDS_P1;SDS_P2;PMS_P1;PMS_P2;Temp;Humidity;BMP_temperature;BMP_pressure;BME280_temperature;BME280_humidity;BME280_pressure;Samples;Min_cycle;Max_cycle;Signal;HPM_P1;HPM_P2
2021/10/25 00:00:22;;;;;;;4.32;4.03;;;15.00;70.10;;;;;;4979516;28;20046;-86
2021/10/25 00:02:49;;;;;;;4.05;3.85;;;14.90;70.10;;;;;;4993232;28;20039;-86
2021/10/25 00:05:15;;;;;;;4.57;4.18;;;14.90;70.20;;;;;;4990417;28;20046;-84
2021/10/25 00:07:41;;;;;;;4.60;4.35;;;14.80;70.20;;;;;;4983540;28;20065;-86
2021/10/25 00:10:07;;;;;;;3.90;3.70;;;14.80;70.30;;;;;;4988544;28;20053;-86
2021/10/25 00:12:33;;;;;;;4.25;3.95;;;14.80;70.40;;;;;;4989928;28;20050;-86
2021/10/25 00:15:00;;;;;;;4.00;3.80;;;14.80;70.60;;;;;;4987589;28;20045;-86
2021/10/25 00:17:26;;;;;;;4.63;4.32;;;14.80;70.60;;;;;;5019201;28;20034;-86
2021/10/25 00:19:52;;;;;;;4.10;3.90;;;14.80;70.50;;;;;;4990980;28;20030;-85
2021/10/25 00:22:18;;;;;;;4.25;4.03;;;14.80;70.50;;;;;;5011368;28;20486;-86
2021/10/25 00:24:44;;;;;;;4.40;4.20;;;14.80;70.60;;;;;;4983076;28;20050;-86
2021/10/25 00:27:11;;;;;;;4.22;4.03;;;14.80;70.60;;;;;;4983676;28;20506;-86
2021/10/25 00:29:37;;;;;;;4.40;4.20;;;14.80;70.60;;;;;;4997826;28;20049;-86
2021/10/25 00:32:03;;;;;;;4.13;3.92;;;14.80;70.60;;;;;;4989051;28;20391;-85
2021/10/25 00:34:29;;;;;;;4.30;4.10;;;14.80;70.60;;;;;;5004294;28;20041;-86
2021/10/25 00:36:55;;;;;;;4.05;3.80;;;14.80;70.60;;;;;;4977957;28;20046;-86
2021/10/25 00:39:21;;;;;;;4.07;3.88;;;14.80;70.60;;;;;;4983391;28;20047;-85
2021/10/25 00:41:48;;;;;;;4.03;3.83;;;14.80;70.70;;;;;;4989396;28;20038;-86
2021/10/25 00:44:15;;;;;;;3.80;3.60;;;14.80;70.70;;;;;;4998611;28;20074;-86
2021/10/25 00:46:41;;;;;;;4.00;3.80;;;14.80;70.60;;;;;;4973878;28;20043;-86
2021/10/25 00:49:07;;;;;;;4.32;4.03;;;14.80;70.70;;;;;;5010451;28;20046;-86
2021/10/25 00:51:33;;;;;;;3.80;3.60;;;14.90;70.80;;;;;;5020314;28;20443;-86
2021/10/25 00:53:59;;;;;;;4.03;3.78;;;14.90;70.80;;;;;;4986873;28;20027;-86
2021/10/25 00:56:26;;;;;;;3.92;3.72;;;14.90;70.70;;;;;;4987903;28;20479;-86
2021/10/25 00:58:52;;;;;;;3.70;3.50;;;14.90;70.70;;;;;;5010752;28;20031;-85
2021/10/25 01:01:18;;;;;;;3.67;3.47;;;14.90;70.90;;;;;;5021089;28;20038;-86
2021/10/25 01:03:44;;;;;;;7.55;4.28;;;14.90;70.80;;;;;;5002382;28;20042;-86
2021/10/25 01:06:10;;;;;;;3.60;3.40;;;14.90;70.90;;;;;;4982815;28;20030;-87
2021/10/25 01:08:37;;;;;;;3.70;3.50;;;14.90;70.90;;;;;;4986775;28;20042;-86
2021/10/25 01:11:03;;;;;;;3.33;3.22;;;14.90;71.00;;;;;;4981382;28;20440;-86
2021/10/25 01:13:29;;;;;;;3.70;3.50;;;14.90;71.00;;;;;;4992940;28;20041;-86
2021/10/25 01:15:55;;;;;;;3.95;3.75;;;14.90;71.00;;;;;;4986372;28;20038;-85
2021/10/25 01:18:21;;;;;;;3.80;3.60;;;14.90;71.00;;;;;;4987732;28;20050;-86
2021/10/25 01:20:48;;;;;;;5.82;3.50;;;14.90;71.00;;;;;;4986572;28;20042;-85
2021/10/25 01:23:14;;;;;;;4.22;3.92;;;15.00;71.10;;;;;;4979343;28;20411;-87
2021/10/25 01:25:41;;;;;;;3.83;3.63;;;15.00;71.10;;;;;;5017616;28;20037;-86
2021/10/25 01:28:07;;;;;;;3.50;3.35;;;15.00;71.10;;;;;;4974153;28;20041;-86
2021/10/25 01:30:33;;;;;;;3.42;3.28;;;15.00;71.20;;;;;;4979817;28;20476;-86
2021/10/25 01:32:59;;;;;;;3.40;3.30;;;15.00;71.10;;;;;;4984562;28;20038;-86
2021/10/25 01:35:25;;;;;;;3.78;3.58;;;15.00;71.20;;;;;;4990647;28;20053;-85
2021/10/25 01:37:51;;;;;;;3.40;3.28;;;15.00;71.20;;;;;;5013992;28;20034;-86
2021/10/25 01:40:17;;;;;;;3.15;3.05;;;15.10;71.30;;;;;;4986195;28;20034;-86
2021/10/25 01:42:44;;;;;;;3.13;3.03;;;15.10;71.30;;;;;;4986777;28;20038;-86
2021/10/25 01:45:10;;;;;;;3.45;3.30;;;15.10;71.30;;;;;;5005608;28;20034;-85
2021/10/25 01:47:36;;;;;;;3.55;3.35;;;15.10;71.30;;;;;;4979531;28;20053;-86
2021/10/25 01:50:03;;;;;;;4.00;3.60;;;15.10;71.30;;;;;;4993357;28;20058;-86
2021/10/25 01:52:29;;;;;;;3.72;3.42;;;15.10;71.40;;;;;;4988208;28;20627;-86
2021/10/25 01:54:55;;;;;;;3.47;3.30;;;15.10;71.40;;;;;;4983695;28;20054;-85
2021/10/25 01:57:21;;;;;;;4.53;4.13;;;15.10;71.40;;;;;;4984542;28;20126;-86
2021/10/25 01:59:47;;;;;;;3.70;3.50;;;15.10;72.20;;;;;;4992239;28;20027;-86
2021/10/25 02:02:14;;;;;;;3.70;3.50;;;15.10;71.50;;;;;;4983466;28;20034;-85
2021/10/25 02:04:41;;;;;;;3.28;3.17;;;15.10;71.50;;;;;;4991406;28;20042;-85
2021/10/25 02:07:07;;;;;;;4.13;3.72;;;15.20;71.70;;;;;;4985989;28;20434;-86
2021/10/25 02:09:33;;;;;;;3.22;3.13;;;15.10;71.60;;;;;;4993405;28;20046;-85
2021/10/25 02:11:59;;;;;;;4.07;3.88;;;15.20;71.70;;;;;;4991617;28;20391;-86
2021/10/25 02:14:26;;;;;;;3.80;3.60;;;15.20;71.70;;;;;;4991342;28;20030;-85
2021/10/25 02:16:52;;;;;;;3.70;3.50;;;15.20;71.80;;;;;;5004209;28;20041;-85
2021/10/25 02:19:18;;;;;;;3.60;3.40;;;15.20;71.80;;;;;;4985630;28;20022;-85
2021/10/25 02:21:44;;;;;;;3.60;3.40;;;15.20;71.80;;;;;;4995891;28;20049;-85
2021/10/25 02:24:11;;;;;;;3.63;3.42;;;15.20;71.80;;;;;;4997755;28;20030;-85
2021/10/25 02:26:37;;;;;;;3.47;3.35;;;15.20;71.90;;;;;;5000564;28;20035;-86
2021/10/25 02:29:03;;;;;;;3.67;3.47;;;15.20;71.90;;;;;;5024122;28;20387;-85
2021/10/25 02:31:29;;;;;;;3.72;3.53;;;15.20;71.90;;;;;;4976048;28;20407;-86
2021/10/25 02:33:55;;;;;;;3.47;3.38;;;15.20;72.00;;;;;;4989405;28;20042;-87
2021/10/25 02:36:22;;;;;;;3.45;3.35;;;15.20;72.00;;;;;;4991815;28;20521;-86
2021/10/25 02:38:49;;;;;;;3.65;3.45;;;15.20;72.00;;;;;;4987802;28;20027;-86
2021/10/25 02:41:15;;;;;;;3.45;3.35;;;15.20;72.10;;;;;;4982197;28;20388;-85
2021/10/25 02:43:41;;;;;;;3.67;3.47;;;15.20;72.10;;;;;;4976566;28;20038;-86
2021/10/25 02:46:07;;;;;;;3.75;3.55;;;15.20;72.20;;;;;;4985747;28;20042;-85
2021/10/25 02:48:34;;;;;;;3.47;3.35;;;15.10;72.10;;;;;;4989078;28;20038;-85
2021/10/25 02:51:00;;;;;;;3.67;3.50;;;15.20;72.30;;;;;;4984239;28;20034;-86
2021/10/25 02:53:27;;;;;;;3.42;3.33;;;15.20;72.30;;;;;;4976240;28;20038;-85
2021/10/25 02:55:53;;;;;;;3.53;3.33;;;15.10;72.20;;;;;;5021620;28;20042;-87
2021/10/25 02:58:19;;;;;;;3.40;3.22;;;15.20;72.30;;;;;;5007843;28;20397;-86
2021/10/25 03:00:45;;;;;;;3.92;3.72;;;15.10;72.30;;;;;;4979720;28;20027;-85
2021/10/25 03:03:11;;;;;;;3.22;3.13;;;15.20;72.40;;;;;;4981137;28;20042;-85
2021/10/25 03:05:37;;;;;;;3.17;3.08;;;15.10;72.40;;;;;;4980276;28;20030;-85
2021/10/25 03:08:04;;;;;;;3.25;3.15;;;15.20;72.50;;;;;;4991788;28;20041;-86
2021/10/25 03:10:30;;;;;;;3.13;3.03;;;15.20;72.50;;;;;;5022104;28;20062;-85
2021/10/25 03:12:56;;;;;;;3.38;3.28;;;15.20;72.60;;;;;;4988480;28;20029;-87
2021/10/25 03:15:22;;;;;;;3.67;3.47;;;15.10;72.60;;;;;;4987380;28;20391;-85
2021/10/25 03:17:49;;;;;;;4.00;3.80;;;15.20;72.70;;;;;;4987945;28;20403;-86
2021/10/25 03:20:16;;;;;;;3.78;3.58;;;15.20;72.70;;;;;;4987006;28;20053;-87
2021/10/25 03:22:42;;;;;;;3.60;3.40;;;15.10;72.70;;;;;;4985564;28;20057;-86
2021/10/25 03:25:10;;;;;;;3.35;3.20;;;15.10;72.80;;;;;;4988835;28;20046;-87
2021/10/25 03:27:36;;;;;;;4.40;4.13;;;15.10;72.90;;;;;;4985313;28;20042;-87
2021/10/25 03:30:04;;;;;;;3.53;3.33;;;15.10;72.90;;;;;;5002734;28;20034;-85
2021/10/25 03:32:30;;;;;;;3.83;3.63;;;15.10;73.00;;;;;;4986850;28;20487;-86
2021/10/25 03:34:56;;;;;;;3.38;3.25;;;15.10;73.00;;;;;;4951106;28;1189803;-86
2021/10/25 03:37:23;;;;;;;3.55;3.35;;;15.10;73.00;;;;;;4984331;28;20043;-86
2021/10/25 03:39:51;;;;;;;4.18;3.35;;;15.10;73.00;;;;;;4982244;28;20034;-86
2021/10/25 03:42:26;;;;;;;3.63;3.42;;;15.10;73.00;;;;;;4985925;28;20026;-86
2021/10/25 03:45:08;;;;;;;3.65;3.45;;;15.10;73.10;;;;;;4988728;28;20050;-86
2021/10/25 03:47:40;;;;;;;3.22;3.13;;;15.10;73.10;;;;;;4987627;28;20035;-86
2021/10/25 03:52:44;;;;;;;3.55;3.35;;;15.10;73.20;;;;;;4982284;28;20415;-86
2021/10/25 04:03:21;;;;;;;3.35;3.25;;;15.20;73.30;;;;;;5016865;28;20498;-85
2021/10/25 04:27:29;;;;;;;2.97;2.88;;;15.10;73.40;;;;;;5001841;28;20053;-87
2021/10/25 04:30:05;;;;;;;3.67;3.47;;;15.10;73.40;;;;;;5016030;28;20046;-87
2021/10/25 04:32:31;;;;;;;3.25;3.13;;;15.10;73.50;;;;;;4989457;28;20054;-86
2021/10/25 04:34:57;;;;;;;3.50;3.30;;;15.10;73.50;;;;;;4974528;28;20053;-86
2021/10/25 04:37:24;;;;;;;3.50;3.30;;;15.10;73.50;;;;;;4975567;28;20396;-86
2021/10/25 04:39:50;;;;;;;3.20;3.05;;;15.10;73.60;;;;;;5009345;28;20027;-86
2021/10/25 04:42:19;;;;;;;3.17;3.08;;;15.10;73.60;;;;;;4981905;28;20022;-86
2021/10/25 04:44:47;;;;;;;3.55;3.33;;;15.10;73.70;;;;;;4975199;28;20049;-86
2021/10/25 04:47:13;;;;;;;3.10;3.00;;;15.00;73.70;;;;;;5013834;28;20038;-87
2021/10/25 04:49:40;;;;;;;3.03;2.92;;;15.10;73.90;;;;;;4990817;28;20491;-87
2021/10/25 04:52:06;;;;;;;3.92;3.72;;;15.00;73.90;;;;;;4987227;28;20041;-86
2021/10/25 04:54:32;;;;;;;3.42;3.30;;;15.00;73.90;;;;;;4983425;28;20031;-88
2021/10/25 04:56:59;;;;;;;3.28;3.17;;;15.00;74.00;;;;;;4983010;28;20404;-86
2021/10/25 04:59:25;;;;;;;3.38;3.28;;;15.00;74.00;;;;;;4981203;28;20034;-89
2021/10/25 05:01:51;;;;;;;3.30;3.20;;;15.00;74.10;;;;;;4983599;28;20216;-86
2021/10/25 05:04:17;;;;;;;3.70;3.50;;;15.00;74.10;;;;;;4990256;28;20025;-86
2021/10/25 05:06:43;;;;;;;3.63;3.42;;;15.00;74.10;;;;;;5017943;28;20049;-86
2021/10/25 05:09:09;;;;;;;3.67;3.40;;;15.00;74.10;;;;;;5001010;28;20053;-86
2021/10/25 05:11:35;;;;;;;3.45;3.35;;;15.00;74.10;;;;;;4980765;28;20042;-86
2021/10/25 05:14:02;;;;;;;3.50;3.30;;;15.00;74.10;;;;;;4976165;28;20061;-86
2021/10/25 05:16:31;;;;;;;3.53;3.33;;;15.10;74.20;;;;;;4988385;28;20506;-85
2021/10/25 05:18:57;;;;;;;13.48;3.78;;;15.10;74.20;;;;;;4984436;28;20033;-86
2021/10/25 05:21:23;;;;;;;7.57;3.28;;;15.10;74.20;;;;;;4989816;28;20026;-88
2021/10/25 05:23:49;;;;;;;3.20;3.10;;;15.10;74.20;;;;;;4980286;28;20030;-86
2021/10/25 05:26:15;;;;;;;4.97;3.65;;;15.10;74.20;;;;;;4972817;28;20466;-85
2021/10/25 05:28:42;;;;;;;3.38;3.28;;;15.10;74.20;;;;;;4977250;28;20058;-85
2021/10/25 05:31:11;;;;;;;4.10;3.75;;;15.10;74.20;;;;;;4979426;28;20046;-85
2021/10/25 05:33:37;;;;;;;3.78;3.58;;;15.10;74.20;;;;;;5001199;28;20027;-85
2021/10/25 05:36:05;;;;;;;3.33;3.13;;;15.10;74.30;;;;;;5005243;28;20431;-85
2021/10/25 05:38:31;;;;;;;3.20;3.10;;;15.10;74.30;;;;;;4997743;28;20033;-85
2021/10/25 05:40:57;;;;;;;3.60;3.40;;;15.10;74.30;;;;;;4985182;28;20431;-85
2021/10/25 05:43:23;;;;;;;3.30;3.20;;;15.10;74.40;;;;;;4976484;28;20035;-85
2021/10/25 05:45:49;;;;;;;3.40;3.20;;;15.20;74.50;;;;;;5026088;28;20518;-85
2021/10/25 05:48:15;;;;;;;3.25;3.15;;;15.20;74.50;;;;;;4982384;28;20035;-85
2021/10/25 05:50:43;;;;;;;3.90;3.70;;;15.20;74.50;;;;;;4979807;28;20034;-85
2021/10/25 05:53:09;;;;;;;3.38;3.17;;;15.20;74.50;;;;;;4977008;28;20489;-85
2021/10/25 05:55:37;;;;;;;3.50;3.30;;;15.20;74.50;;;;;;4989455;28;20431;-84
2021/10/25 05:58:05;;;;;;;3.13;3.03;;;15.20;74.50;;;;;;5019724;28;20037;-86
2021/10/25 06:00:36;;;;;;;3.53;3.33;;;15.20;74.60;;;;;;4989431;28;20411;-86
2021/10/25 06:03:02;;;;;;;3.33;3.13;;;15.20;74.60;;;;;;5016187;28;20479;-85
2021/10/25 06:05:30;;;;;;;3.67;3.47;;;15.20;74.60;;;;;;5017536;28;20404;-84
2021/10/25 06:07:57;;;;;;;3.78;3.58;;;15.20;74.70;;;;;;5017716;28;20027;-85
2021/10/25 06:10:32;;;;;;;3.60;3.40;;;15.20;74.70;;;;;;5007694;28;20034;-85
2021/10/25 06:13:03;;;;;;;3.20;3.10;;;15.20;74.70;;;;;;4986358;28;20070;-85
2021/10/25 06:15:37;;;;;;;3.72;3.53;;;15.20;74.80;;;;;;4986654;28;20039;-85
2021/10/25 06:18:07;;;;;;;3.72;3.53;;;15.20;74.80;;;;;;4985066;28;20024;-86
2021/10/25 06:20:34;;;;;;;22.10;3.90;;;15.10;74.90;;;;;;5010190;28;20022;-87
2021/10/25 06:23:12;;;;;;;3.60;3.40;;;15.10;74.80;;;;;;5022127;28;20026;-86
2021/10/25 06:25:39;;;;;;;3.90;3.70;;;15.10;74.90;;;;;;5020919;28;20030;-85
2021/10/25 06:28:05;;;;;;;4.13;3.90;;;15.10;75.00;;;;;;4986718;28;20416;-87
2021/10/25 06:30:31;;;;;;;3.95;3.72;;;15.10;75.10;;;;;;5017156;28;20384;-87
2021/10/25 06:32:58;;;;;;;3.58;3.38;;;15.10;75.10;;;;;;4997890;28;20377;-86
2021/10/25 06:35:26;;;;;;;3.40;3.30;;;15.10;75.10;;;;;;4987062;28;20034;-87
2021/10/25 06:40:22;;;;;;;3.25;3.15;;;15.10;75.20;;;;;;4999865;28;20026;-90
2021/10/25 06:42:48;;;;;;;4.00;3.78;;;15.10;75.20;;;;;;4989720;28;20026;-86
2021/10/25 06:45:17;;;;;;;3.42;3.20;;;15.10;75.20;;;;;;4990091;28;20030;-85
2021/10/25 06:47:43;;;;;;;3.67;3.40;;;15.10;75.30;;;;;;4987936;28;20038;-90
2021/10/25 06:50:10;;;;;;;5.85;3.75;;;15.10;75.30;;;;;;5026450;28;20041;-91
2021/10/25 06:52:36;;;;;;;9.07;3.92;;;15.10;75.30;;;;;;4987471;28;20042;-83
2021/10/25 06:55:04;;;;;;;3.65;3.45;;;15.10;76.10;;;;;;4995938;28;20379;-84
2021/10/25 06:57:30;;;;;;;3.70;3.50;;;15.10;76.10;;;;;;4990102;28;20089;-84
2021/10/25 06:59:56;;;;;;;25.70;4.05;;;15.10;75.30;;;;;;5017399;28;20483;-83
2021/10/25 07:02:23;;;;;;;3.60;3.40;;;15.10;75.30;;;;;;4986581;28;20491;-83
2021/10/25 07:04:49;;;;;;;4.15;3.85;;;15.20;75.30;;;;;;5013888;28;20460;-87
2021/10/25 07:07:18;;;;;;;3.90;3.55;;;15.20;75.30;;;;;;4978758;28;20471;-87
2021/10/25 07:09:44;;;;;;;3.63;3.38;;;15.20;75.40;;;;;;4984133;28;20026;-88
2021/10/25 07:12:10;;;;;;;11.32;4.20;;;15.20;75.40;;;;;;4984879;28;20046;-86
2021/10/25 07:14:38;;;;;;;3.60;3.40;;;15.20;75.40;;;;;;5022659;28;20045;-84
2021/10/25 08:01:33;;;;;;;3.67;3.47;;;16.20;73.90;;;;;;4979467;28;20054;-89
2021/10/25 08:06:45;;;;;;;4.38;3.95;;;16.20;74.20;;;;;;4985616;28;20045;-84
2021/10/25 08:11:58;;;;;;;3.75;3.55;;;16.10;74.40;;;;;;5019757;28;20045;-86
2021/10/25 08:14:31;;;;;;;4.20;3.72;;;16.20;74.50;;;;;;5019883;28;20026;-86
2021/10/25 08:16:57;;;;;;;4.45;3.75;;;16.40;74.30;;;;;;4984451;28;20042;-84
2021/10/25 08:19:27;;;;;;;3.65;3.45;;;16.70;73.80;;;;;;4978635;28;20364;-84
2021/10/25 08:24:33;;;;;;;4.28;3.97;;;17.00;73.10;;;;;;5010319;22;20054;-95
2021/10/25 08:27:00;;;;;;;4.03;3.83;;;17.00;73.00;;;;;;4999424;28;20037;-93
2021/10/25 08:29:26;;;;;;;4.07;3.88;;;17.00;73.10;;;;;;5000826;28;20042;-94
2021/10/25 08:32:09;;;;;;;4.22;4.03;;;17.00;73.30;;;;;;4973055;28;20630;-86
2021/10/25 08:40:00;;;;;;;4.10;3.90;;;16.80;73.80;;;;;;4992258;28;20435;-89
2021/10/25 08:42:27;;;;;;;;;;;16.80;73.90;;;;;;4986507;28;20522;-86
2021/10/25 08:44:59;;;;;;;4.22;4.03;;;16.80;74.00;;;;;;4983582;28;20271;-85
2021/10/25 08:47:28;;;;;;;;;;;16.80;74.00;;;;;;4988452;28;20037;-86
2021/10/25 08:49:56;;;;;;;4.43;4.22;;;16.80;74.10;;;;;;4977796;28;19917;-85
2021/10/25 08:52:23;;;;;;;4.22;3.97;;;16.80;74.00;;;;;;4986128;28;20046;-88
2021/10/25 08:54:50;;;;;;;3.90;3.70;;;16.80;74.00;;;;;;4984335;28;20042;-88
2021/10/25 08:57:18;;;;;;;4.10;3.90;;;16.80;74.00;;;;;;4990524;28;20035;-87
2021/10/25 09:00:13;;;;;;;4.05;3.85;;;16.90;74.00;;;;;;4988843;28;20384;-87
2021/10/25 09:02:40;;;;;;;4.50;4.15;;;16.90;73.90;;;;;;4985072;28;20046;-88
2021/10/25 09:05:08;;;;;;;4.10;3.90;;;16.90;73.90;;;;;;4988383;28;20037;-88
2021/10/25 09:07:54;;;;;;;4.15;3.95;;;17.00;73.90;;;;;;4990410;28;20037;-84
2021/10/25 09:10:31;;;;;;;6.70;4.20;;;17.00;73.90;;;;;;4976618;28;20026;-86
2021/10/25 09:12:59;;;;;;;4.50;4.30;;;17.00;73.90;;;;;;4990108;28;20102;-85
2021/10/25 09:15:29;;;;;;;4.10;3.90;;;17.00;73.90;;;;;;4991287;28;20045;-84
2021/10/25 09:17:58;;;;;;;4.78;4.57;;;17.00;73.90;;;;;;4989320;28;20478;-86
2021/10/25 09:20:24;;;;;;;5.10;4.80;;;17.00;73.80;;;;;;4989896;28;20403;-87
2021/10/25 09:23:05;;;;;;;4.63;4.43;;;17.00;73.90;;;;;;4984748;28;20395;-87
2021/10/25 09:25:32;;;;;;;5.13;4.82;;;17.00;73.90;;;;;;4990046;28;20050;-86
2021/10/25 09:27:58;;;;;;;5.03;4.68;;;16.90;73.90;;;;;;4989443;28;20383;-85
2021/10/25 09:30:25;;;;;;;4.65;4.45;;;16.90;74.00;;;;;;4984934;28;20046;-87
2021/10/25 09:32:52;;;;;;;4.55;4.30;;;16.90;74.10;;;;;;4988761;28;20038;-86
2021/10/25 09:35:28;;;;;;;4.38;4.18;;;16.90;74.10;;;;;;4990578;28;20038;-83
2021/10/25 09:38:07;;;;;;;4.00;3.80;;;16.90;74.20;;;;;;4989657;28;20050;-85
2021/10/25 09:50:53;;;;;;;4.40;4.20;;;17.10;73.90;;;;;;4990466;28;20027;-84
2021/10/25 09:53:33;;;;;;;5.07;4.88;;;17.10;73.80;;;;;;4990002;28;20045;-83
2021/10/25 09:55:59;;;;;;;4.50;4.30;;;17.20;73.80;;;;;;4983908;28;20090;-87
2021/10/25 09:58:28;;;;;;;4.20;4.00;;;17.20;73.70;;;;;;4990811;28;20030;-89
2021/10/25 10:00:54;;;;;;;4.10;3.90;;;17.30;73.60;;;;;;4989837;28;20509;-89
2021/10/25 10:03:20;;;;;;;4.30;4.10;;;17.30;73.50;;;;;;4987317;28;20387;-88
2021/10/25 10:05:49;;;;;;;4.53;4.32;;;17.40;73.50;;;;;;4995130;28;20372;-88
2021/10/25 10:08:15;;;;;;;4.47;4.28;;;17.40;73.30;;;;;;4992576;28;20038;-87
2021/10/25 10:10:42;;;;;;;4.50;4.30;;;17.50;73.20;;;;;;4992586;28;20047;-85
2021/10/25 10:13:12;;;;;;;4.50;4.30;;;17.50;73.30;;;;;;4990989;28;20046;-85
2021/10/25 10:15:41;;;;;;;4.55;4.35;;;17.60;73.20;;;;;;4989537;28;20537;-87
2021/10/25 10:18:13;;;;;;;4.45;4.25;;;17.60;73.10;;;;;;4989813;28;20038;-85
2021/10/25 10:20:39;;;;;;;4.03;3.83;;;17.60;73.00;;;;;;4991749;28;20034;-84
2021/10/25 10:23:07;;;;;;;4.40;4.20;;;17.60;73.10;;;;;;4992730;28;20419;-86
2021/10/25 10:25:51;;;;;;;4.30;4.10;;;17.60;73.10;;;;;;4991933;28;20054;-83
2021/10/25 10:28:31;;;;;;;4.45;4.25;;;17.60;73.10;;;;;;4995057;28;20039;-86
2021/10/25 10:31:00;;;;;;;4.93;4.63;;;17.60;73.10;;;;;;4991216;28;20403;-87
2021/10/25 10:33:35;;;;;;;4.70;4.10;;;17.50;73.00;;;;;;4990443;28;20046;-91
2021/10/25 10:36:15;;;;;;;4.25;4.05;;;17.50;73.00;;;;;;4993578;28;20045;-79
2021/10/25 10:39:11;;;;;;;4.28;4.07;;;17.60;73.10;;;;;;4985181;28;20047;-91
2021/10/25 10:41:42;;;;;;;4.18;3.97;;;17.60;73.00;;;;;;4993435;28;20038;-88
2021/10/25 10:44:11;;;;;;;4.20;4.00;;;17.60;72.90;;;;;;4988419;28;20045;-90
2021/10/25 10:46:57;;;;;;;4.40;4.20;;;17.60;72.80;;;;;;4986953;28;20034;-89
2021/10/25 10:49:55;;;;;;;4.88;4.50;;;17.70;72.80;;;;;;4985134;28;20049;-88
2021/10/25 10:52:33;;;;;;;4.55;4.35;;;17.80;72.60;;;;;;4988655;28;20376;-87
2021/10/25 11:00:29;;;;;;;4.65;4.45;;;17.90;72.30;;;;;;4965867;28;20558;-85
2021/10/25 11:02:59;;;;;;;5.00;4.60;;;17.90;72.20;;;;;;4968833;28;20034;-86
2021/10/25 11:05:36;;;;;;;4.60;4.40;;;17.90;72.20;;;;;;4969817;28;20045;-85
2021/10/25 11:08:13;;;;;;;4.88;4.57;;;17.90;72.10;;;;;;4967876;28;20053;-85
2021/10/25 11:10:40;;;;;;;4.57;4.38;;;17.90;72.10;;;;;;4970066;28;20031;-83
2021/10/25 11:13:12;;;;;;;4.55;4.35;;;17.90;72.10;;;;;;4971128;28;20714;-84
2021/10/25 11:15:41;;;;;;;4.80;4.55;;;18.00;72.00;;;;;;4963353;28;20563;-85
2021/10/25 11:18:08;;;;;;;4.75;4.53;;;18.10;71.90;;;;;;4969550;28;20039;-85
2021/10/25 11:20:34;;;;;;;4.72;4.53;;;18.10;71.80;;;;;;4954517;28;20086;-85
2021/10/25 11:23:05;;;;;;;4.70;4.50;;;18.10;71.70;;;;;;4968523;28;20077;-86
2021/10/25 11:25:41;;;;;;;4.93;4.72;;;18.20;71.70;;;;;;4969808;28;20054;-86
2021/10/25 11:28:18;;;;;;;4.78;4.55;;;18.20;71.60;;;;;;4971456;28;20047;-86
2021/10/25 11:30:45;;;;;;;4.78;4.57;;;18.20;71.50;;;;;;4971221;28;20131;-85
2021/10/25 11:33:11;;;;;;;4.55;4.35;;;18.20;71.40;;;;;;4968528;28;20107;-85
2021/10/25 11:35:50;;;;;;;5.30;5.00;;;18.20;71.40;;;;;;4954861;28;20039;-85
2021/10/25 11:38:16;;;;;;;5.00;4.80;;;18.20;71.40;;;;;;4980588;28;20745;-87
2021/10/25 11:40:42;;;;;;;4.97;4.78;;;18.30;71.40;;;;;;4991552;28;20030;-84
2021/10/25 11:43:09;;;;;;;5.75;5.35;;;18.30;71.30;;;;;;4990771;28;20038;-85
2021/10/25 11:45:35;;;;;;;5.07;4.88;;;18.30;71.30;;;;;;4987665;28;20030;-86
2021/10/25 11:48:02;;;;;;;5.03;4.72;;;18.20;71.20;;;;;;4971395;28;20475;-85
2021/10/25 11:50:30;;;;;;;4.97;4.78;;;18.20;71.20;;;;;;4990369;28;20380;-84
2021/10/25 11:53:07;;;;;;;5.35;5.05;;;18.20;71.30;;;;;;4990246;28;20148;-85
2021/10/25 11:55:40;;;;;;;5.00;4.80;;;18.20;71.20;;;;;;4987352;28;20365;-84
2021/10/25 11:58:13;;;;;;;5.20;4.93;;;18.20;71.20;;;;;;4991224;28;20058;-84
2021/10/25 12:00:43;;;;;;;5.40;5.10;;;18.20;71.30;;;;;;4990991;28;20042;-83
2021/10/25 12:03:11;;;;;;;4.97;4.78;;;18.20;71.20;;;;;;4989609;28;20057;-84
2021/10/25 12:05:37;;;;;;;5.15;4.90;;;18.20;71.10;;;;;;4984816;28;20066;-84
2021/10/25 12:08:04;;;;;;;4.63;4.43;;;18.20;71.00;;;;;;4990517;28;20034;-84
2021/10/25 12:10:31;;;;;;;4.90;4.70;;;18.20;70.90;;;;;;4970679;28;20392;-83
2021/10/25 12:13:00;;;;;;;5.03;4.82;;;18.30;70.80;;;;;;4986438;28;20069;-85
2021/10/25 12:15:31;;;;;;;4.90;4.70;;;18.30;70.70;;;;;;4987076;28;20046;-87
2021/10/25 12:17:58;;;;;;;5.20;5.00;;;18.30;70.70;;;;;;4983729;28;20030;-87
2021/10/25 12:20:26;;;;;;;5.30;5.05;;;18.30;70.50;;;;;;4986678;28;20494;-79
2021/10/25 12:23:20;;;;;;;5.00;4.80;;;18.40;70.50;;;;;;4981629;28;20034;-87
2021/10/25 12:25:57;;;;;;;5.00;4.80;;;18.50;70.20;;;;;;4988611;28;20380;-87
2021/10/25 12:28:24;;;;;;;5.15;4.95;;;18.60;70.00;;;;;;4986888;28;20396;-87
2021/10/25 12:30:52;;;;;;;5.15;4.95;;;18.60;69.90;;;;;;4986160;28;20027;-87
2021/10/25 12:33:25;;;;;;;5.25;5.05;;;18.70;69.70;;;;;;4983642;28;20041;-86
2021/10/25 12:35:51;;;;;;;6.10;5.53;;;18.80;69.60;;;;;;4989921;28;20027;-87
2021/10/25 12:38:22;;;;;;;5.60;5.30;;;18.80;69.50;;;;;;4988990;28;20049;-87
2021/10/25 12:40:49;;;;;;;5.05;4.85;;;18.80;69.50;;;;;;4980644;28;20045;-87
2021/10/25 12:43:16;;;;;;;4.63;4.43;;;18.80;69.50;;;;;;4978691;28;20391;-86
2021/10/25 12:45:44;;;;;;;5.10;4.90;;;18.80;69.50;;;;;;4981390;28;20372;-87
2021/10/25 12:48:12;;;;;;;5.70;5.40;;;18.80;69.40;;;;;;4966294;28;20037;-87
2021/10/25 12:50:40;;;;;;;5.30;5.10;;;18.80;69.30;;;;;;4982469;28;20033;-86
2021/10/25 12:53:08;;;;;;;5.00;4.80;;;18.80;69.30;;;;;;4976750;28;20484;-86
2021/10/25 12:55:35;;;;;;;5.45;5.25;;;18.90;69.10;;;;;;4978792;28;20033;-85
2021/10/25 12:58:01;;;;;;;5.68;5.28;;;18.90;69.10;;;;;;4983350;28;20038;-86
2021/10/25 13:00:28;;;;;;;5.95;5.55;;;18.90;69.00;;;;;;4978573;28;20049;-86
2021/10/25 13:02:54;;;;;;;5.50;5.22;;;19.00;68.90;;;;;;4981184;28;20049;-87
2021/10/25 13:05:24;;;;;;;5.32;5.13;;;19.00;68.80;;;;;;4985647;28;20497;-85
2021/10/25 13:07:52;;;;;;;5.65;5.38;;;19.00;68.80;;;;;;4990037;28;20031;-86
2021/10/25 13:10:27;;;;;;;5.68;5.38;;;19.00;68.70;;;;;;4987137;28;20050;-86
2021/10/25 13:12:54;;;;;;;5.57;5.28;;;19.00;68.70;;;;;;4989546;28;20042;-88
2021/10/25 13:15:20;;;;;;;5.47;5.28;;;19.10;68.80;;;;;;4984881;28;20447;-86
2021/10/25 13:17:46;;;;;;;5.97;5.68;;;19.10;68.60;;;;;;4986277;28;20038;-88
2021/10/25 13:20:17;;;;;;;6.07;5.78;;;19.10;68.50;;;;;;4982420;28;20035;-89
2021/10/25 13:22:44;;;;;;;5.78;5.47;;;19.10;68.50;;;;;;4986067;28;20046;-83
2021/10/25 13:25:10;;;;;;;5.80;5.50;;;19.00;68.50;;;;;;4990994;28;20031;-89
2021/10/25 13:27:37;;;;;;;5.95;5.65;;;19.00;68.60;;;;;;4977879;28;20050;-86
2021/10/25 13:30:04;;;;;;;5.82;5.53;;;18.90;68.60;;;;;;4974239;28;20038;-86
2021/10/25 13:32:30;;;;;;;5.93;5.63;;;19.00;68.60;;;;;;4979461;28;20038;-85
2021/10/25 13:34:57;;;;;;;5.80;5.50;;;19.00;68.50;;;;;;4981244;28;20038;-86
2021/10/25 13:37:23;;;;;;;5.60;5.35;;;18.90;68.40;;;;;;4980129;28;20484;-87
2021/10/25 13:39:49;;;;;;;5.78;5.47;;;18.90;68.40;;;;;;4966782;28;20479;-89
2021/10/25 13:42:15;;;;;;;5.57;5.35;;;18.90;68.30;;;;;;4967452;28;20035;-88
2021/10/25 13:44:42;;;;;;;5.55;5.25;;;18.90;68.40;;;;;;4970130;28;20221;-89
2021/10/25 13:47:09;;;;;;;5.50;5.30;;;18.90;68.30;;;;;;4984137;28;20045;-87
2021/10/25 13:49:35;;;;;;;6.05;5.75;;;18.90;68.20;;;;;;4983879;28;20030;-90
2021/10/25 13:52:01;;;;;;;5.32;5.13;;;19.00;68.20;;;;;;4985902;28;20046;-93
2021/10/25 13:54:28;;;;;;;6.10;5.75;;;19.00;68.10;;;;;;4988576;28;20034;-92
2021/10/25 13:56:54;;;;;;;5.82;5.53;;;19.10;67.90;;;;;;4982498;28;20439;-91
2021/10/25 13:59:20;;;;;;;5.55;5.30;;;19.20;67.80;;;;;;4983872;28;20037;-85
2021/10/25 14:01:46;;;;;;;7.20;6.47;;;19.30;67.70;;;;;;4983077;28;20034;-77
2021/10/25 14:04:16;;;;;;;6.57;6.28;;;19.30;67.40;;;;;;4985436;28;20045;-87
2021/10/25 14:06:43;;;;;;;6.70;6.40;;;19.30;67.30;;;;;;4983035;28;20042;-86
2021/10/25 14:09:09;;;;;;;6.47;6.18;;;19.30;67.20;;;;;;4984660;28;20034;-86
2021/10/25 14:11:44;;;;;;;6.30;6.00;;;19.30;67.30;;;;;;4984050;28;20031;-84
2021/10/25 14:14:17;;;;;;;6.25;5.95;;;19.20;67.30;;;;;;4983602;28;20054;-87
2021/10/25 14:16:55;;;;;;;6.68;6.38;;;19.20;67.40;;;;;;4983705;28;20043;-86
2021/10/25 14:19:23;;;;;;;6.63;6.32;;;19.10;67.40;;;;;;4984899;28;20034;-85
2021/10/25 14:21:52;;;;;;;6.38;6.05;;;19.10;67.40;;;;;;4983935;28;20371;-85
2021/10/25 14:24:19;;;;;;;6.32;6.03;;;19.10;67.50;;;;;;4983056;28;20514;-84
2021/10/25 14:26:46;;;;;;;6.05;5.75;;;19.00;67.40;;;;;;4983422;28;20038;-85
2021/10/25 14:29:12;;;;;;;5.97;5.68;;;19.00;67.50;;;;;;4983958;28;20391;-87
2021/10/25 14:31:41;;;;;;;6.13;5.82;;;19.00;67.50;;;;;;4982538;28;20039;-87
2021/10/25 14:34:07;;;;;;;6.25;5.95;;;18.90;67.40;;;;;;4982860;28;20059;-83
2021/10/25 14:36:33;;;;;;;6.05;5.75;;;18.90;67.50;;;;;;4984379;28;20030;-83
2021/10/25 14:41:34;;;;;;;4.88;4.68;;;18.70;67.70;;;;;;4984397;28;20034;-85
2021/10/25 14:44:10;;;;;;;5.15;4.95;;;18.70;67.80;;;;;;4982434;28;20034;-84